Rob's Bike Ride Log - 2002

    Ride Mileage Riding Time Avg Total Avg Mileage Mileage Mileage Mileage  
Date Location Nbr Rob hh:mm:ss Speed Mileage Mileage Mary Kelly Katie Kerry Comments/Description
01/01/02 Webster Groves/Kirkwood area 1 12.29 0:57:47 12.761 12.29 12.29 0.00 0.00 0.00 0.00 New Years Day ride - short loop thru Webster & Kirkwood. Little traffic. Temp 28-29.
01/12/02 South Saint Louis County MO 2 21.28 1:34:02 13.578 33.57 16.79 0.00 0.00 0.00 0.00 Grant's Trail+. Temp ~45.
01/26/02 Webster Groves/Kirkwood area 3 22.46 1:50:44 12.170 56.03 18.68 0.00 0.00 0.00 22.46 Warm, sunny day. Found 2 golf balls. Stop at Kirkwood Pk, Kerry lost glove, found on return.
02/03/02 Webster Groves/Ladue area 4 22.61 1:41:39 13.346 78.64 19.66 0.00 0.00 0.00 0.00 Tuesday route, loop thru Ladue, home via Sherwood. Temp ~47-48.
02/16/02 Webster Groves//Saint Louis City 5 21.56 1:36:08 13.456 100.20 20.04 0.00 0.00 0.00 0.00 Big Bend to Forsyth to Forest Park, loop near ice rink, loop around Wilshire Terrace.
02/23/02 Webster Groves//Saint Louis City 6 31.68 2:29:10 12.743 131.88 21.98 0.00 0.00 0.00 0.00 Downtown via Germania & Broadway, thru Forest Park and home via Maplewood
03/07/02 Webster Groves/Kirkwood area 7 20.18 1:31:20 13.257 152.06 21.72 0.00 0.00 0.00 0.00 Tue route, loop Mollies Mews, Sherwood
03/17/02 South Saint Louis County MO 8 20.67 1:30:58 13.634 172.73 21.59 0.00 0.00 0.00 0.00 Grant's Trail+. Temp ~45, overcast, sprinkles.
03/23/02 Webster Groves/Saint Louis City 9 31.74 2:25:42 13.071 204.47 22.72 0.00 0.00 0.00 0.00 Downtown via Germania & Broadway, thru Forest Park and home via Arsenal, breezy
04/06/02 Webster Groves/St. Louis MO 10 31.96 2:28:20 12.928 236.43 23.64 0.00 0.00 0.00 0.00 Clockwise loop around Airport and return. Lunch at Woofies. Some wind.
04/11/02 Webster Groves/Kirkwood area 11 21.14 1:33:57 13.501 257.57 23.42 0.00 0.00 0.00 0.00 Tue route, loop Mollies Mews, Sherwood ~80
04/14/02 Webster Groves/Saint Louis City 12 40.06 2:58:26 13.471 297.63 24.80 0.00 0.00 0.00 0.00 Downtown via Grant's Trail, Union, Holly Hills, Forest Park loop, Makland, Arsenal.
04/18/02 Webster Groves/Kirkwood area 13 21.23 1:31:52 13.866 318.86 24.53 0.00 0.00 0.00 0.00 Tue route, loop Mollies Mews, Sherwood ~90
04/21/02 Webster Groves area 14 8.48 0:38:02 13.378 327.34 23.38 0.00 0.00 0.00 8.48 Tue route, rain started a 4 mile mark, got soaked
04/28/02 Webster Groves/Saint Louis City 15 36.55 2:46:53 13.141 363.89 24.26 0.00 0.00 0.00 0.00 Downtown via Grant's Trail, Union, Germania, Thru Forest Park
05/02/02 Webster Groves/Kirkwood area 16 21.27 1:37:08 13.139 385.16 24.07 0.00 0.00 0.00 0.00 Tue route, loop Mollies Mews, Sherwood
05/05/02 Webster Groves/Kirkwood area 17 22.05 1:48:40 12.175 407.21 23.95 0.00 0.00 0.00 22.05 Tue route, loop Mollies Mews, Sherwood, found 30
05/11/02 Webster Groves/Kirkwood area 18 22.30 1:36:41 13.839 429.51 23.86 0.00 0.00 0.00 0.00 Tue route, loop Mollies Mews, Sherwood
05/15/02 Webster Groves/Ladue area 19 22.58 1:35:04 14.251 452.09 23.79 0.00 0.00 0.00 0.00 Tuesday route, loop thru Ladue, loop thru Tilles Pk, home via Sherwood. Windy.
05/18/02 Webster Groves/Saint Louis City 20 41.56 3:05:32 13.440 493.65 24.68 0.00 0.00 0.00 0.00 Downtown via Grant's Trail, Germania & Broadway, loop around Forest Park and home via Arsenal, breezy
05/19/02 South Saint Louis County MO 21 10.07 1:15:30 8.003 503.72 23.99 0.00 10.07 10.07 10.07 Grant's Trail. Beautiful day, stop for snow cones.
05/23/02 Webster Groves/Kirkwood area 22 21.26 1:33:46 13.604 524.98 23.86 0.00 0.00 0.00 0.00 Tue route, loop Mollies Mews, loop around KHS, Sherwood
05/26/02 West St. Louis County/St. Albans 23 35.16 2:21:07 14.949 560.14 24.35 0.00 0.00 0.00 0.00 St. Albans the easy way, did 2nd hill on T, found corkscrew, roads busy (ts:40)
05/30/02 South Saint Louis County MO 24 20.89 1:31:07 13.756 581.03 24.21 0.00 0.00 0.00 20.89 Home to Grant's trail, double loop to Union and Avenue I.
06/02/02 Columbia IL area 25 25.25 1:53:01 13.405 606.28 24.25 0.00 0.00 0.00 0.00 Loop around DD, Levee Road, B, Merrimac, Steppig, Bluff Rd. W/Mike Gawlak.
06/02/02 South Saint Louis County MO 26 16.29 1:05:53 14.835 622.57 23.95 0.00 0.00 0.00 0.00 To/From Mike Gawlak's home via Grant's Trail, Lemay Ferry, Buckley
06/04/02 Webster Groves/Kirkwood area 27 21.23 1:32:43 13.739 643.80 23.84 0.00 0.00 0.00 0.00 Tue route in reverse, loop Mollies Mews, loop around KHS, Sherwood. First trip with new clip pedals.
06/09/02 Webster/West St. Louis County 28 34.00 2:19:48 14.592 677.80 24.21 0.00 0.00 0.00 0.00 Home to Bill Cassely's via Geyer, Clayton Rd and Baxter. Warm, some wind. First trip with new tires/tubes.
06/12/02 South Saint Louis County MO 29 20.36 1:25:04 14.361 698.16 24.07 0.00 0.00 0.00 0.00 Home to Grant's trail, double loop to Union and Avenue I. Front flat before.
06/16/02 Webster Groves/Saint Louis City 30 31.15 2:19:07 13.435 729.31 24.31 0.00 0.00 0.00 0.00 Downtown via Big Bend, Murdoch, Germania & Broadway, thru Forest Park and home via Maplewood
06/19/02 Webster Groves/Kirkwood area 31 21.28 1:34:11 13.557 750.59 24.21 0.00 0.00 0.00 0.00 Tue route, loop Mollies Mews, loop around KHS, Sherwood.
06/30/02 Webster Groves MO/Granite City IL 32 60.50 4:29:30 13.469 811.09 25.35 0.00 0.00 0.00 0.00 Big Bend, Germania, Broadway, Riverfront Trail, COR, Pine Market Laclede, Aresenal, Jamison, Big Bend. 40 people on COR bridge.
07/03/02 Webster Groves/Kirkwood area 33 21.20 1:42:07 12.456 832.29 25.22 0.00 0.00 0.00 0.00 Tue route, loop Mollies Mews, loop around KHS, Sherwood. Sprinkles. Mapped route.
07/05/02 St. Charles/Augusta MO 34 55.01 3:46:50 14.551 887.30 26.10 0.00 0.00 0.00 0.00 KATY Trail, hot & humid. With Jerry Roloff. Fallen tree blocking path near 40 bridge. Hotest day of year so far. Heat Index: 98.9 - 103.6.
07/07/02 South Saint Louis County MO 35 13.05 1:42:54 7.609 900.35 25.72 0.00 0.00 13.05 13.05 Grants Trail. Flat tire at 2.5 miles. Snowcones. Saw man riding with bird on shoulder.
07/12/02 Webster Groves/Kirkwood area 36 21.05 1:39:42 12.668 921.40 25.59 0.00 0.00 0.00 21.05 Tue route, loop Mollies Mews, stop at Kirkwood Park playground, Sherwood. Found 2 golf balls.
07/14/02 Columbia/Valmeyer IL 37 32.94 2:20:59 14.019 954.34 25.79 0.00 0.00 0.00 0.00 Levee & B roads, saw deer. W/Mike Gawlak
07/17/02 Webster Groves/Kirkwood area 38 24.48 1:44:43 14.026 978.82 25.76 0.00 0.00 0.00 0.00 Tue route, loop Mollies Mews, loop around KHS, Doughty Ferry to Big Bend.
07/22/02 Webster Groves/Ladue area 39 26.16 1:46:06 14.794 1004.98 25.77 0.00 0.00 0.00 0.00 Tuesday route, loop Mollie's Mews, loop thru Ladue & Tilles Pk, home via Sherwood. Heat Index 105-103.
07/25/02 Saint Louis City/Granite City IL 40 26.29 2:01:03 13.031 1031.27 25.78 0.00 0.00 0.00 0.00 Riverfront Trail from work. Saw baby deer. Semi crashed into StL Water Treatment plant later that evening. W/Mike Gawlak
07/27/02 Webster Groves/Saint Louis City 41 40.05 3:15:19 12.303 1071.32 26.13 0.00 0.00 0.00 40.05 Downtown via Grant's Trail, Germania & Broadway, thru Forest Park and home via Maplewood. Hot & windy. Head index 100-104.
07/28/02 South Saint Louis County MO 42 11.80 1:30:10 7.852 1083.12 25.79 0.00 0.00 11.80 11.80 Grants Trail. Took path in woods.
08/01/02 South Saint Louis County MO 43 20.52 1:31:16 13.490 1103.64 25.67 0.00 0.00 0.00 20.52 Grants Trail after work. Stop for sno-cones.
08/03/02 Webster Groves/Saint Louis City 44 42.70 3:02:09 14.065 1146.34 26.05 0.00 0.00 0.00 0.00 Downtown via Grant's Trail, Morgan Ford, Grand, Broadway north to CC Bell Electronics. Home via downtown, Forest Park, Maplewood. Found 19. Picked up camcorder.
08/21/02 Webster Groves/West County MO 45 25.36 1:48:28 14.028 1171.70 26.04 0.00 0.00 0.00 0.00 Big Bend, Lockwood, Sappington, Geyer, Clayton, Des Peres, Doughterty Ferry, Big Bend. Maiden voyage with new shifters and rear derailer.
08/24/02 Webster Groves/Saint Louis City 46 42.70 3:16:38 13.029 1214.40 26.40 0.00 0.00 0.00 0.00 Grants Trail, Union, Bayless, Broadway, Forest Park, Forsyth, Ladue, McKnight, Clayton, Geyer, Adams, Sherwood
08/25/02 Eureka MO 47 12.15 1:42:05 7.141 1226.55 26.10 0.00 12.15 0.00 0.00 Route 66 State Park, saw 3 deer
08/29/02 Webster Groves/West County MO 48 26.05 1:53:11 13.809 1252.60 26.10 0.00 0.00 0.00 0.00 Big Bend, Lockwood, Sappington, Geyer, Clayton, Des Peres, Doughterty Ferry, Big Bend. Found 5.
08/31/02 Columbia IL/Ellis Grove IL 49 104.02 7:16:51 14.287 1356.62 27.69 0.00 0.00 0.00 0.00 Century ride on the Bluff Rd, Route 3, Shawnee Town Trail Rd. Saw the following dead things: 8 racoons, 1 deer, 1 fox, 1 cat, 1 skunk. Also saw 10 trains. R leg cramped at 99.90.
09/04/02 Webster Groves/Kirkwood area 50 21.21 1:43:07 12.341 1377.83 27.56 0.00 0.00 0.00 21.21 Tue route, loop Mollies Mews, loop around KHS, Sherwood. Saw 8 dogs, 2 rabbits and one loud train.
09/08/02 Webster Groves/West County MO 51 26.04 1:54:08 13.689 1403.87 27.53 0.00 0.00 0.00 0.00 Big Bend, Lockwood, Sappington, Geyer, Clayton, Des Peres, Doughterty Ferry, Big Bend. Mapped route.
09/11/02 South Saint Louis County MO 52 20.42 1:31:14 13.429 1424.29 27.39 0.00 0.00 0.00 20.42 Grants Trail after work. Stop for sno-cones. Kerry found 25.
09/15/02 Webster Groves/West County MO 53 26.12 1:52:27 13.937 1450.41 27.37 0.00 0.00 0.00 0.00 Big Bend, Lockwood, Sappington, Geyer, Clayton, Des Peres, Doughterty Ferry, Big Bend. Reverse order.
09/27/02 Webster Groves/Kirkwood area 54 21.21 1:33:02 13.679 1471.62 27.25 0.00 0.00 0.00 0.00 Tue route, loop Mollies Mews, loop around KHS, Sherwood.
09/29/02 Webster Groves/Kirkwood area 55 22.01 1:46:02 12.455 1493.63 27.16 0.00 0.00 0.00 22.01 Tue route, loop Mollies Mews, loop around KHS, stop at Kirkwood Pk, Sherwood.
10/05/02 Webster Groves/Saint Louis City 56 32.01 2:19:14 13.794 1525.64 27.24 0.00 0.00 0.00 0.00 Downtown via Germania & Broadway, thru Forest Park and home via Maplewood. Stop at Katie's soccer game - she scored a goal.
10/12/02 Webster Groves/West County MO 57 26.45 1:51:12 14.272 1552.09 27.23 0.00 0.00 0.00 0.00 Loop to Des Peres, home via Brentwood Park to watch Katie's soccer game.
10/18/02 Webster Groves/Kirkwood area 58 21.13 1:43:29 12.251 1573.22 27.12 0.00 0.00 0.00 14.77 Tue route, pickup Kerry at pre-school, visit Kirkwood Park, lunch at McD's with Mary.
11/08/02 Alton IL to Pere Marquette IL 59 41.55 2:54:22 14.297 1614.77 27.37 0.00 0.00 0.00 0.00 Great River Road. Nice day - windy. To Grafton 52:07, 16.12 with tailwind. 6 sailboats on Lake Alton.
11/14/02 South Saint Louis County MO 60 20.27 1:27:43 13.865 1635.04 27.25 0.00 0.00 0.00 20.27 Grants Trail after work. Light rain last 7 miles. Dark by the time we got home.
11/19/02 Webster Groves/Kirkwood area 61 20.19 1:31:06 13.297 1655.23 27.13 0.00 0.00 0.00 0.00 Tue route, loop Mollies Mews, Sherwood. Nice day.
11/23/02 Webster Groves/West County MO 62 26.20 1:55:44 13.583 1681.43 27.12 0.00 0.00 0.00 0.00 Big Bend, Lockwood, Sappington, Geyer, Clayton, Des Peres, Doughterty Ferry, Big Bend.
12/02/02 Webster Groves/Kirkwood area 63 20.67 1:40:59 12.281 1702.10 27.02 0.00 0.00 0.00 20.67 Tue route, loop Mollies Mews, stop at Kirkwood Park, Sherwood. Nice day.
12/30/02 Webster Groves/Kirkwood area 64 21.27 1:35:09 13.413 1723.37 26.93 0.00 0.00 0.00 0.00 Tue route, loop Mollies Mews, loop KHS, Sherwood. Temp ~65. Found golf ball.
Total Mileage 1723.37 129:58:21 0.00 22.22 34.92 309.77
Target Mileage 1000.00
Percent Complete 172.3%
Copyright 2002-2003 Robert P. Anderson
robertpanderson.com
Page Last Updated: 11/28/2003 at 10:05:27